Time;durP1;ratioP1;P1;durP2;ratioP2;P2;SDS_P1;SDS_P2;PMS_P1;PMS_P2;Temp;Humidity;BMP_temperature;BMP_pressure;BME280_temperature;BME280_humidity;BME280_pressure;Samples;Min_cycle;Max_cycle;Signal;HPM_P1;HPM_P2
2022/01/11 00:00:36;;;;;;;20.77;10.50;;;7.00;51.10;;;;;;5068036;28;20515;-80
2022/01/11 00:03:04;;;;;;;21.33;9.73;;;7.10;50.70;;;;;;5047819;28;20040;-80
2022/01/11 00:05:40;;;;;;;18.63;8.10;;;7.30;50.60;;;;;;5047261;28;20036;-80
2022/01/11 00:08:09;;;;;;;18.90;8.85;;;7.40;48.90;;;;;;5050301;28;20036;-79
2022/01/11 00:10:47;;;;;;;21.25;9.50;;;7.40;49.80;;;;;;5039763;28;20079;-79
2022/01/11 00:13:14;;;;;;;19.00;9.13;;;7.50;50.10;;;;;;5056256;28;20040;-82
2022/01/11 00:15:40;;;;;;;21.27;8.80;;;7.20;50.10;;;;;;5039092;28;20028;-80
2022/01/11 00:18:05;;;;;;;22.40;10.10;;;7.00;50.90;;;;;;5049566;28;20063;-88
2022/01/11 00:20:33;;;;;;;22.10;9.55;;;7.10;50.70;;;;;;5061890;28;20016;-80
2022/01/11 00:25:36;;;;;;;21.08;9.50;;;7.50;50.50;;;;;;5058037;28;20046;-81
2022/01/11 00:28:03;;;;;;;19.98;10.10;;;7.60;50.50;;;;;;5057650;28;20067;-82
2022/01/11 00:30:33;;;;;;;21.65;9.73;;;7.90;50.20;;;;;;5067922;28;20025;-80
2022/01/11 00:33:02;;;;;;;18.23;9.32;;;8.00;50.40;;;;;;5042232;28;20405;-80
2022/01/11 00:35:38;;;;;;;20.95;10.77;;;8.00;50.20;;;;;;5039229;28;20029;-80
2022/01/11 00:38:05;;;;;;;21.45;9.88;;;7.80;50.50;;;;;;5056227;28;20493;-80
2022/01/11 00:40:31;;;;;;;21.88;10.18;;;7.60;51.10;;;;;;5046232;28;20116;-93
2022/01/11 00:42:59;;;;;;;20.65;9.82;;;7.40;51.00;;;;;;5072433;28;20104;-82
2022/01/11 00:45:29;;;;;;;23.77;10.70;;;6.10;53.70;;;;;;5058776;28;20020;-79
2022/01/11 00:47:55;;;;;;;24.37;11.20;;;5.70;53.90;;;;;;5076386;28;20025;-80
2022/01/11 00:50:21;;;;;;;19.70;9.88;;;5.70;54.80;;;;;;5058603;28;20277;-80
2022/01/11 00:52:47;;;;;;;21.25;10.70;;;6.00;54.80;;;;;;5075983;28;20043;-80
2022/01/11 00:55:13;;;;;;;23.30;10.75;;;6.40;53.00;;;;;;5076100;28;20029;-80
2022/01/11 00:57:39;;;;;;;25.65;11.52;;;6.00;53.80;;;;;;5061583;28;20063;-80
2022/01/11 01:00:08;;;;;;;22.50;11.30;;;5.50;56.10;;;;;;5078604;28;20050;-81
2022/01/11 01:02:34;;;;;;;25.45;11.95;;;5.20;57.50;;;;;;5062978;28;20025;-81
2022/01/11 01:05:02;;;;;;;25.48;11.82;;;5.60;57.00;;;;;;5056328;28;20036;-80
2022/01/11 01:07:28;;;;;;;22.25;11.48;;;5.60;56.60;;;;;;5056847;28;20020;-80
2022/01/11 01:10:03;;;;;;;31.92;13.60;;;5.40;56.90;;;;;;5082810;28;20025;-80
2022/01/11 01:12:29;;;;;;;24.60;11.77;;;5.50;57.60;;;;;;5060008;28;20081;-92
2022/01/11 01:14:55;;;;;;;24.15;11.85;;;5.70;56.10;;;;;;5072721;28;20047;-80
2022/01/11 01:17:20;;;;;;;24.05;10.90;;;5.60;56.30;;;;;;5084229;28;20036;-81
2022/01/11 01:19:46;;;;;;;21.15;10.95;;;5.80;55.60;;;;;;5057260;28;20043;-81
2022/01/11 01:22:12;;;;;;;23.30;11.07;;;5.90;55.40;;;;;;5075454;28;20036;-80
2022/01/11 01:24:38;;;;;;;24.42;11.65;;;5.60;56.00;;;;;;5057750;28;20025;-80
2022/01/11 01:27:04;;;;;;;21.15;9.60;;;4.50;57.70;;;;;;5068302;28;20032;-82
2022/01/11 01:29:30;;;;;;;22.33;10.60;;;4.60;58.60;;;;;;5066914;28;20029;-81
2022/01/11 01:31:58;;;;;;;21.17;10.85;;;5.10;57.40;;;;;;5055641;28;20101;-81
2022/01/11 01:34:25;;;;;;;22.83;11.32;;;5.60;55.80;;;;;;5037552;28;20496;-81
2022/01/11 01:36:52;;;;;;;25.17;10.95;;;5.90;55.00;;;;;;5038152;28;20029;-85
2022/01/11 01:39:18;;;;;;;21.25;10.35;;;6.10;54.60;;;;;;5041012;28;20036;-80
2022/01/11 01:41:46;;;;;;;21.65;10.57;;;6.10;54.20;;;;;;5071604;28;20021;-82
2022/01/11 01:44:13;;;;;;;21.90;10.77;;;6.50;53.90;;;;;;5042046;28;20531;-81
2022/01/11 01:46:40;;;;;;;22.02;11.43;;;6.50;53.90;;;;;;5037269;28;20388;-79
2022/01/11 01:49:07;;;;;;;25.23;11.18;;;6.70;53.60;;;;;;5067551;28;20051;-82
2022/01/11 01:51:33;;;;;;;26.60;11.52;;;6.40;54.10;;;;;;5039373;28;20678;-82
2022/01/11 01:53:59;;;;;;;25.92;11.93;;;6.10;54.20;;;;;;5041610;28;20051;-82
2022/01/11 01:56:26;;;;;;;23.00;10.75;;;6.10;54.10;;;;;;5037427;28;20039;-80
2022/01/11 01:58:52;;;;;;;27.00;12.93;;;6.30;54.10;;;;;;5049211;28;20476;-81
2022/01/11 02:01:18;;;;;;;22.38;11.25;;;6.60;53.60;;;;;;5038278;28;20032;-82
2022/01/11 02:03:45;;;;;;;24.27;11.93;;;6.70;52.90;;;;;;5056774;28;20032;-85
2022/01/11 02:06:14;;;;;;;27.13;12.38;;;6.60;53.40;;;;;;5055852;28;20029;-82
2022/01/11 02:08:42;;;;;;;22.70;11.85;;;6.60;53.40;;;;;;5044687;28;20086;-81
2022/01/11 02:11:08;;;;;;;25.48;11.57;;;6.60;53.90;;;;;;5037608;28;20124;-79
2022/01/11 02:13:37;;;;;;;26.20;12.32;;;6.80;53.40;;;;;;5042362;28;20064;-81
2022/01/11 02:16:06;;;;;;;23.50;11.80;;;6.80;52.30;;;;;;5041285;28;20119;-82
2022/01/11 02:18:35;;;;;;;27.90;12.00;;;6.70;52.60;;;;;;5070483;28;20032;-82
2022/01/11 02:21:00;;;;;;;27.30;12.68;;;6.70;52.80;;;;;;5071291;28;20039;-82
2022/01/11 02:23:28;;;;;;;26.38;11.80;;;6.80;52.40;;;;;;5048444;28;20029;-81
2022/01/11 02:25:54;;;;;;;28.90;11.98;;;6.90;52.20;;;;;;5053551;28;20029;-81
2022/01/11 02:28:23;;;;;;;26.25;12.80;;;6.70;52.60;;;;;;5056577;28;20047;-81
2022/01/11 02:30:50;;;;;;;25.42;11.90;;;6.60;52.50;;;;;;5056800;28;20119;-81
2022/01/11 02:33:35;;;;;;;24.98;12.02;;;6.60;52.30;;;;;;5074432;28;20107;-81
2022/01/11 02:36:04;;;;;;;28.63;12.65;;;6.10;52.60;;;;;;5074242;28;20032;-82
2022/01/11 02:38:30;;;;;;;27.15;12.77;;;5.80;54.10;;;;;;5074132;28;20031;-92
2022/01/11 02:40:58;;;;;;;26.77;13.05;;;5.70;54.40;;;;;;5056365;28;20028;-82
2022/01/11 02:43:24;;;;;;;28.42;13.73;;;5.90;54.40;;;;;;5037862;28;20033;-81
2022/01/11 02:45:50;;;;;;;24.63;12.57;;;5.90;55.10;;;;;;5037127;28;20025;-81
2022/01/11 02:48:16;;;;;;;25.55;12.60;;;6.00;54.70;;;;;;5037240;28;20029;-82
2022/01/11 02:50:43;;;;;;;25.85;13.05;;;6.00;54.20;;;;;;5042592;28;20029;-82
2022/01/11 02:53:09;;;;;;;29.65;14.05;;;5.70;55.10;;;;;;5065373;28;20039;-87
2022/01/11 02:55:39;;;;;;;24.58;12.43;;;5.60;54.80;;;;;;5056865;28;20021;-82
2022/01/11 02:58:05;;;;;;;;;;;5.50;54.80;;;;;;5056704;28;20052;-83
2022/01/11 03:00:31;;;;;;;25.67;11.57;;;5.40;55.90;;;;;;5054574;28;20368;-82
2022/01/11 03:03:09;;;;;;;25.27;12.57;;;5.60;55.70;;;;;;5056774;28;20025;-90
2022/01/11 03:05:43;;;;;;;31.63;14.65;;;5.60;54.60;;;;;;5055232;28;20021;-82
2022/01/11 03:08:10;;;;;;;32.00;14.00;;;5.60;53.90;;;;;;5074041;28;20029;-83
2022/01/11 03:10:39;;;;;;;29.02;13.23;;;5.80;53.30;;;;;;5038437;28;20025;-83
2022/01/11 03:13:07;;;;;;;24.00;11.88;;;5.70;53.60;;;;;;5053457;28;20037;-81
2022/01/11 03:15:34;;;;;;;28.35;13.52;;;5.80;54.00;;;;;;5050779;28;20494;-82
2022/01/11 03:18:00;;;;;;;23.77;11.95;;;5.90;53.30;;;;;;5047466;28;20044;-81
2022/01/11 03:20:28;;;;;;;24.40;11.57;;;5.90;53.40;;;;;;5073968;28;20111;-81
2022/01/11 03:22:53;;;;;;;21.83;11.02;;;5.80;53.90;;;;;;5065971;28;20029;-80
2022/01/11 03:25:19;;;;;;;26.15;11.57;;;5.90;54.60;;;;;;5055030;28;20032;-84
2022/01/11 03:27:45;;;;;;;28.65;12.13;;;5.80;54.70;;;;;;5069320;28;20039;-83
2022/01/11 03:30:13;;;;;;;25.48;11.82;;;5.80;53.20;;;;;;5063543;28;20048;-82
2022/01/11 03:32:42;;;;;;;22.35;11.00;;;5.90;53.80;;;;;;5086553;28;20392;-81
2022/01/11 03:35:09;;;;;;;22.48;10.20;;;5.60;54.70;;;;;;5066585;28;20570;-83
2022/01/11 03:37:36;;;;;;;24.52;11.00;;;5.50;55.50;;;;;;5046823;28;20377;-81
2022/01/11 03:40:03;;;;;;;24.02;11.05;;;5.80;55.10;;;;;;5045273;28;20029;-83
2022/01/11 03:42:29;;;;;;;24.35;11.07;;;5.90;54.50;;;;;;5040129;28;20025;-83
2022/01/11 03:44:55;;;;;;;36.72;15.93;;;5.90;53.90;;;;;;5040177;28;20021;-83
2022/01/11 03:47:21;;;;;;;32.60;14.73;;;5.70;53.20;;;;;;5040753;28;20094;-89
2022/01/11 03:49:47;;;;;;;29.67;13.73;;;5.90;53.40;;;;;;5058418;28;20055;-82
2022/01/11 03:52:13;;;;;;;28.83;12.68;;;5.80;52.60;;;;;;5040640;28;20458;-83
2022/01/11 04:00:39;;;;;;;34.38;15.73;;;5.70;53.10;;;;;;5076279;28;20032;-84
2022/01/11 04:03:05;;;;;;;28.58;13.65;;;5.60;53.90;;;;;;5060006;28;20119;-84
2022/01/11 04:09:29;;;;;;;27.40;12.85;;;5.30;54.70;;;;;;5053983;28;20043;-83
2022/01/11 04:11:55;;;;;;;25.17;13.00;;;4.50;56.70;;;;;;5040374;28;20334;-84
2022/01/11 04:18:46;;;;;;;20.77;10.88;;;4.50;56.80;;;;;;5061890;28;20046;-84
2022/01/11 04:21:12;;;;;;;25.88;12.05;;;4.40;57.50;;;;;;4998350;28;20041;-85
2022/01/11 04:30:34;;;;;;;26.77;12.95;;;5.00;54.90;;;;;;5016279;28;20045;-86
2022/01/11 04:36:42;;;;;;;31.20;13.75;;;4.90;56.00;;;;;;4995288;28;20572;-85
2022/01/11 04:39:11;;;;;;;32.17;14.35;;;4.80;55.10;;;;;;4996508;28;20052;-86
2022/01/11 04:41:40;;;;;;;43.53;17.45;;;4.30;56.50;;;;;;5012940;28;20049;-85
2022/01/11 04:47:27;;;;;;;30.02;14.32;;;4.30;58.60;;;;;;5015932;28;20100;-86
2022/01/11 04:50:20;;;;;;;49.15;17.75;;;4.10;56.70;;;;;;5015330;28;20441;-89
2022/01/11 05:05:08;;;;;;;27.27;13.52;;;4.50;55.00;;;;;;5741542;22;20524;-88
2022/01/11 05:07:34;;;;;;;143.75;48.10;;;4.50;55.30;;;;;;5030614;28;20033;-87
2022/01/11 05:10:00;;;;;;;199.65;75.28;;;4.70;55.80;;;;;;5039564;28;20384;-87
2022/01/11 05:12:25;;;;;;;65.32;26.50;;;5.00;55.60;;;;;;5034216;28;20068;-88
2022/01/11 05:14:56;;;;;;;41.28;19.50;;;5.20;54.70;;;;;;5039549;28;20029;-87
2022/01/11 05:17:22;;;;;;;29.52;13.73;;;5.00;54.20;;;;;;4999562;28;20160;-87
2022/01/11 05:24:12;;;;;;;28.88;13.35;;;4.70;55.10;;;;;;5037030;28;20040;-89
2022/01/11 05:26:39;;;;;;;31.52;14.52;;;4.80;55.20;;;;;;5036308;28;20029;-88
2022/01/11 05:29:08;;;;;;;26.35;13.52;;;4.70;55.00;;;;;;5018089;28;20033;-86
2022/01/11 05:31:36;;;;;;;36.08;14.93;;;4.60;55.20;;;;;;5021308;28;20495;-86
2022/01/11 05:34:09;;;;;;;60.67;26.65;;;4.60;55.20;;;;;;5022829;28;20037;-86
2022/01/11 05:36:36;;;;;;;31.92;14.27;;;4.60;55.50;;;;;;4999282;28;20028;-87
2022/01/11 05:39:03;;;;;;;30.85;13.65;;;4.30;54.70;;;;;;4998555;28;20022;-87
2022/01/11 05:41:44;;;;;;;34.60;16.65;;;4.00;55.30;;;;;;4999376;28;20032;-87
2022/01/11 05:44:13;;;;;;;30.02;14.35;;;3.90;56.20;;;;;;5024901;23;20195;-89
2022/01/11 05:46:39;;;;;;;31.92;13.95;;;3.90;56.20;;;;;;5019827;28;20018;-89
2022/01/11 05:49:12;;;;;;;38.40;17.20;;;3.80;56.20;;;;;;5036479;28;20036;-90
2022/01/11 05:51:40;;;;;;;36.15;18.77;;;3.90;56.90;;;;;;5019536;28;20105;-90
2022/01/11 05:54:06;;;;;;;28.90;13.10;;;4.00;56.90;;;;;;5019871;28;20037;-91
2022/01/11 06:31:18;;;;;;;30.05;14.93;;;4.10;54.90;;;;;;4598224;23;21435;-87
2022/01/11 06:33:46;;;;;;;28.35;12.70;;;3.80;54.10;;;;;;4938354;29;20047;-88
2022/01/11 06:36:11;;;;;;;32.88;14.48;;;3.60;54.60;;;;;;4956403;29;20036;-88
2022/01/11 06:38:42;;;;;;;30.17;14.25;;;3.60;55.80;;;;;;4956191;28;20032;-87
2022/01/11 06:41:18;;;;;;;33.45;14.73;;;3.60;56.00;;;;;;4956286;29;20028;-88
2022/01/11 06:43:43;;;;;;;28.58;13.50;;;3.50;56.30;;;;;;4939893;29;20451;-87
2022/01/11 06:46:09;;;;;;;30.23;13.93;;;3.60;56.50;;;;;;4940306;29;20467;-89
2022/01/11 06:48:35;;;;;;;29.38;13.07;;;3.50;56.20;;;;;;4939504;28;20031;-88
2022/01/11 06:51:11;;;;;;;28.15;13.60;;;3.40;56.10;;;;;;4944100;29;20027;-88
2022/01/11 06:53:37;;;;;;;30.02;13.57;;;3.20;56.70;;;;;;4943532;29;20043;-90
2022/01/11 06:59:45;;;;;;;27.55;13.13;;;3.90;56.30;;;;;;4980658;28;20418;-89
2022/01/11 07:02:11;;;;;;;28.77;12.52;;;3.50;54.90;;;;;;4957557;29;20122;-88
2022/01/11 07:07:12;;;;;;;27.58;13.05;;;3.50;55.00;;;;;;5323073;23;20057;-86
2022/01/11 07:09:38;;;;;;;30.92;14.35;;;3.70;55.30;;;;;;5055307;28;20063;-84
2022/01/11 07:12:04;;;;;;;34.97;14.27;;;4.10;54.90;;;;;;5037438;28;20113;-85
2022/01/11 07:14:30;;;;;;;28.83;13.88;;;4.50;54.70;;;;;;5055122;28;20028;-87
2022/01/11 07:16:56;;;;;;;29.10;13.23;;;4.60;54.30;;;;;;5038442;28;20044;-85
2022/01/11 07:19:22;;;;;;;30.95;13.32;;;4.50;53.30;;;;;;5038684;28;20108;-86
2022/01/11 07:21:48;;;;;;;31.83;14.60;;;4.00;54.30;;;;;;5038494;28;20023;-85
2022/01/11 07:24:16;;;;;;;31.33;14.57;;;3.80;56.10;;;;;;5038953;28;20091;-87
2022/01/11 07:26:42;;;;;;;33.15;14.77;;;3.70;57.00;;;;;;5039140;28;20029;-87
2022/01/11 07:29:08;;;;;;;34.90;16.27;;;3.80;57.60;;;;;;5038944;28;20456;-86
2022/01/11 07:31:36;;;;;;;75.63;33.03;;;4.00;57.10;;;;;;5039745;28;20477;-87
2022/01/11 07:34:03;;;;;;;33.38;16.70;;;4.10;57.20;;;;;;5039468;28;20051;-87
2022/01/11 07:36:29;;;;;;;57.78;27.42;;;4.10;56.80;;;;;;5039205;28;20025;-85
2022/01/11 07:38:55;;;;;;;54.95;25.40;;;4.10;57.50;;;;;;5039148;28;20033;-85
2022/01/11 07:41:21;;;;;;;70.07;30.05;;;4.40;57.10;;;;;;5038923;28;20456;-86
2022/01/11 07:43:48;;;;;;;58.22;26.02;;;4.90;55.90;;;;;;5039026;28;20033;-87
2022/01/11 07:46:14;;;;;;;49.03;23.95;;;5.00;55.10;;;;;;5038799;28;20025;-87
2022/01/11 07:48:40;;;;;;;48.13;24.42;;;4.80;56.60;;;;;;5038964;28;20025;-87
2022/01/11 07:51:06;;;;;;;50.63;25.02;;;5.20;55.60;;;;;;5038964;28;20025;-86
2022/01/11 07:53:31;;;;;;;44.33;21.05;;;5.50;54.40;;;;;;5038497;28;20472;-87
2022/01/11 07:55:57;;;;;;;43.95;22.15;;;5.50;55.00;;;;;;5038722;28;20078;-86
2022/01/11 07:58:23;;;;;;;45.88;21.92;;;5.40;55.40;;;;;;5038755;28;20029;-86
2022/01/11 08:00:49;;;;;;;41.22;21.13;;;5.30;56.20;;;;;;5037585;28;20025;-88
2022/01/11 08:03:15;;;;;;;40.72;20.10;;;5.40;55.50;;;;;;5038431;28;20041;-85
2022/01/11 08:05:41;;;;;;;38.65;18.65;;;5.50;55.90;;;;;;5054482;28;20460;-86
2022/01/11 08:08:06;;;;;;;34.20;17.45;;;5.80;55.50;;;;;;5058355;28;20033;-87
2022/01/11 08:10:33;;;;;;;35.17;16.98;;;6.20;54.30;;;;;;5059293;28;20365;-86
2022/01/11 08:12:58;;;;;;;36.65;17.58;;;6.50;53.60;;;;;;5058316;28;20024;-87
2022/01/11 08:15:24;;;;;;;33.97;15.52;;;6.50;53.50;;;;;;5058141;28;20094;-86
2022/01/11 08:17:50;;;;;;;35.20;16.15;;;6.40;53.60;;;;;;5058641;28;20400;-87
2022/01/11 08:20:16;;;;;;;31.55;16.05;;;6.20;54.40;;;;;;5058193;28;20480;-85
2022/01/11 08:22:41;;;;;;;39.85;19.30;;;6.40;54.50;;;;;;5057986;28;20024;-86
2022/01/11 08:25:08;;;;;;;36.25;17.83;;;6.30;54.50;;;;;;5058228;28;20123;-85
2022/01/11 08:27:36;;;;;;;32.35;16.52;;;6.60;54.00;;;;;;5057924;28;20025;-85
2022/01/11 08:30:05;;;;;;;36.75;17.13;;;6.50;53.70;;;;;;5058065;28;20032;-85
2022/01/11 08:32:30;;;;;;;40.97;17.70;;;6.60;53.00;;;;;;5057875;28;20108;-84
2022/01/11 08:34:56;;;;;;;39.63;17.75;;;6.40;53.80;;;;;;5057613;28;20035;-85
2022/01/11 08:37:22;;;;;;;32.67;16.90;;;6.30;53.50;;;;;;5057780;28;20107;-86
2022/01/11 08:39:50;;;;;;;32.55;16.50;;;6.50;53.20;;;;;;5057478;28;20027;-85
2022/01/11 08:42:16;;;;;;;37.00;17.27;;;6.80;52.80;;;;;;5057667;28;20475;-84
2022/01/11 08:44:47;;;;;;;34.10;16.90;;;7.00;52.80;;;;;;5057621;28;20089;-84
2022/01/11 08:47:14;;;;;;;34.10;17.15;;;7.20;52.20;;;;;;5075193;28;20096;-84
2022/01/11 08:49:40;;;;;;;32.10;16.73;;;7.40;52.30;;;;;;5057601;28;20029;-83
2022/01/11 08:52:09;;;;;;;32.10;16.58;;;7.70;51.90;;;;;;5057295;28;20027;-83
2022/01/11 08:54:37;;;;;;;34.33;16.85;;;8.80;50.90;;;;;;5056906;28;20643;-83
2022/01/11 08:57:04;;;;;;;24.88;14.07;;;10.90;48.20;;;;;;5057195;28;20024;-83
2022/01/11 08:59:30;;;;;;;24.98;14.25;;;12.90;44.50;;;;;;5056805;28;20033;-83
2022/01/11 09:01:59;;;;;;;23.77;12.40;;;15.40;41.70;;;;;;5057147;28;20096;-81
2022/01/11 09:04:25;;;;;;;21.48;11.77;;;17.30;38.70;;;;;;5056724;28;20036;-81
2022/01/11 09:06:51;;;;;;;16.90;8.88;;;18.60;36.90;;;;;;5056870;28;20052;-81
2022/01/11 09:09:18;;;;;;;20.00;10.55;;;18.80;34.80;;;;;;5074524;28;20028;-81
2022/01/11 09:11:45;;;;;;;18.52;10.68;;;18.70;36.00;;;;;;5056683;28;20024;-81
2022/01/11 09:14:11;;;;;;;17.13;9.15;;;19.80;35.10;;;;;;5056194;28;20107;-81
2022/01/11 09:16:37;;;;;;;16.30;9.27;;;20.80;34.70;;;;;;5056783;28;20111;-82
2022/01/11 09:19:03;;;;;;;18.52;9.65;;;21.50;34.30;;;;;;5056877;28;20021;-82
2022/01/11 09:21:31;;;;;;;15.45;8.38;;;21.90;34.00;;;;;;5056577;28;20025;-81
2022/01/11 09:23:57;;;;;;;15.48;9.27;;;22.50;32.10;;;;;;5056846;28;20113;-84
2022/01/11 09:26:23;;;;;;;16.05;9.73;;;20.50;32.60;;;;;;5056639;28;20035;-84
2022/01/11 09:28:49;;;;;;;19.00;11.38;;;19.40;33.20;;;;;;5056755;28;20032;-84
2022/01/11 09:31:15;;;;;;;20.60;10.48;;;18.20;34.00;;;;;;5056122;28;20032;-83
2022/01/11 09:33:40;;;;;;;16.33;9.70;;;19.20;34.00;;;;;;5056604;28;20119;-82
2022/01/11 09:36:06;;;;;;;15.93;9.18;;;19.70;32.10;;;;;;5056501;28;20147;-83
2022/01/11 09:38:32;;;;;;;17.05;9.05;;;20.10;32.00;;;;;;5056880;28;20024;-83
2022/01/11 09:40:58;;;;;;;14.10;8.23;;;20.80;31.50;;;;;;5056415;28;20125;-82
2022/01/11 09:43:27;;;;;;;14.60;8.52;;;20.70;31.50;;;;;;5056486;28;20480;-82
2022/01/11 09:45:55;;;;;;;13.63;8.25;;;19.90;31.90;;;;;;5056475;28;20028;-83
2022/01/11 09:48:22;;;;;;;14.55;8.30;;;19.50;32.00;;;;;;5056606;28;20486;-82
2022/01/11 09:50:48;;;;;;;14.95;8.43;;;19.40;32.10;;;;;;5056160;28;20051;-82
2022/01/11 09:53:16;;;;;;;14.50;8.20;;;19.30;32.90;;;;;;5056350;28;20394;-83
2022/01/11 09:55:44;;;;;;;15.82;8.52;;;20.00;31.80;;;;;;5056127;28;20036;-85
2022/01/11 09:58:15;;;;;;;16.50;9.68;;;20.40;32.20;;;;;;5056172;28;20032;-83
2022/01/11 10:00:41;;;;;;;15.57;9.82;;;20.80;32.20;;;;;;5055970;28;20055;-84
2022/01/11 10:03:10;;;;;;;16.52;8.93;;;20.90;31.90;;;;;;5056395;28;20036;-85
2022/01/11 10:05:37;;;;;;;14.07;8.30;;;20.00;31.30;;;;;;5055793;28;20029;-86
2022/01/11 10:08:24;;;;;;;15.15;8.98;;;19.30;32.10;;;;;;5055818;28;20048;-85
2022/01/11 10:10:52;;;;;;;15.68;8.68;;;19.00;32.10;;;;;;5056023;28;20035;-89
2022/01/11 10:13:29;;;;;;;15.27;9.15;;;19.20;32.70;;;;;;5055955;28;20025;-85
2022/01/11 10:15:55;;;;;;;14.45;8.63;;;19.10;32.50;;;;;;5055996;28;20032;-87
2022/01/11 10:18:39;;;;;;;15.25;8.90;;;19.10;32.50;;;;;;5056430;28;20455;-85
2022/01/11 10:21:36;;;;;;;15.73;9.77;;;19.50;32.60;;;;;;5056189;28;20032;-86
2022/01/11 10:24:36;;;;;;;15.00;8.93;;;19.40;32.30;;;;;;5055212;28;20476;-86
2022/01/11 10:27:06;;;;;;;16.75;9.38;;;19.90;32.20;;;;;;5055793;28;20025;-86
2022/01/11 10:29:41;;;;;;;13.18;8.20;;;20.80;31.80;;;;;;5056475;28;20036;-86
2022/01/11 10:32:25;;;;;;;14.23;9.05;;;21.10;31.70;;;;;;5056036;28;20042;-87
2022/01/11 10:34:58;;;;;;;13.77;8.80;;;21.30;31.40;;;;;;5055840;28;20049;-87
2022/01/11 10:37:33;;;;;;;13.55;8.25;;;21.60;30.80;;;;;;5056208;28;20050;-86
2022/01/11 10:40:11;;;;;;;15.35;8.55;;;20.90;31.00;;;;;;5055663;28;20025;-86
2022/01/11 10:42:46;;;;;;;14.07;8.00;;;21.00;30.70;;;;;;5056170;28;20024;-86
2022/01/11 10:45:24;;;;;;;15.35;8.20;;;20.60;30.40;;;;;;5055705;28;20438;-86
2022/01/11 10:47:56;;;;;;;11.60;7.43;;;19.00;31.80;;;;;;5055956;28;20372;-87
2022/01/11 10:50:28;;;;;;;13.02;7.63;;;17.80;32.00;;;;;;5055680;28;20031;-87
2022/01/11 10:52:57;;;;;;;12.65;7.60;;;18.60;32.70;;;;;;5056077;28;20021;-88
2022/01/11 10:55:28;;;;;;;11.75;6.90;;;19.90;31.60;;;;;;5055700;28;20106;-87
2022/01/11 10:58:03;;;;;;;12.75;7.43;;;18.80;30.80;;;;;;5055450;28;20036;-88
2022/01/11 11:00:41;;;;;;;13.40;7.18;;;18.70;31.60;;;;;;5055600;28;20487;-86
2022/01/11 11:03:14;;;;;;;12.43;6.57;;;17.70;32.40;;;;;;5055714;28;20056;-86
2022/01/11 11:05:56;;;;;;;11.30;6.50;;;17.00;32.70;;;;;;5055283;28;20533;-86
2022/01/11 11:08:23;;;;;;;10.23;5.75;;;16.00;33.40;;;;;;5055365;28;20036;-88
2022/01/11 11:10:55;;;;;;;11.00;6.30;;;15.90;33.30;;;;;;5055854;28;20503;-87
2022/01/11 11:13:39;;;;;;;10.55;5.90;;;15.70;33.50;;;;;;5054919;28;20035;-88
2022/01/11 11:16:09;;;;;;;9.95;6.28;;;15.30;33.10;;;;;;5055357;28;20028;-87
2022/01/11 11:18:39;;;;;;;9.88;5.85;;;15.40;33.70;;;;;;5055234;28;20032;-88
2022/01/11 11:21:32;;;;;;;10.38;5.50;;;14.60;33.90;;;;;;5055592;28;20115;-86
2022/01/11 11:24:05;;;;;;;10.30;5.45;;;14.10;34.00;;;;;;5051301;28;20060;-86
2022/01/11 11:26:38;;;;;;;10.38;5.78;;;13.00;34.90;;;;;;5055488;28;20021;-86
2022/01/11 11:29:08;;;;;;;10.18;5.47;;;11.90;36.00;;;;;;5055154;28;20033;-84
2022/01/11 11:31:34;;;;;;;;;;;11.10;37.10;;;;;;5055573;28;20154;-85
2022/01/11 11:34:03;;;;;;;11.00;5.43;;;10.20;37.70;;;;;;5055165;28;20003;-85
2022/01/11 11:36:30;;;;;;;13.02;6.30;;;10.00;39.20;;;;;;5056477;28;20025;-86
2022/01/11 11:39:03;;;;;;;11.27;5.47;;;10.20;39.00;;;;;;5059000;28;20017;-86
2022/01/11 11:41:39;;;;;;;15.10;7.57;;;9.80;39.10;;;;;;5058818;28;20033;-88
2022/01/11 11:44:15;;;;;;;13.70;7.43;;;9.30;39.20;;;;;;5058491;28;20066;-85
2022/01/11 11:47:00;;;;;;;14.00;7.30;;;9.50;40.00;;;;;;5058665;28;20071;-85
2022/01/11 11:49:55;;;;;;;11.60;5.43;;;10.30;38.70;;;;;;5059527;28;20098;-85
2022/01/11 11:52:35;;;;;;;14.25;8.32;;;10.10;38.90;;;;;;5058601;28;20021;-87
2022/01/11 11:55:10;;;;;;;12.60;6.53;;;9.90;39.60;;;;;;5058552;28;20020;-85
2022/01/11 11:57:42;;;;;;;10.43;5.70;;;9.90;38.80;;;;;;5058349;28;20028;-86
2022/01/11 12:00:08;;;;;;;11.65;6.63;;;10.40;39.20;;;;;;5058586;28;20458;-86
2022/01/11 12:02:48;;;;;;;10.07;5.88;;;10.80;39.00;;;;;;5058487;28;20550;-87
2022/01/11 12:05:34;;;;;;;10.75;6.63;;;10.30;38.70;;;;;;5058696;28;20032;-88
2022/01/11 12:08:36;;;;;;;11.68;6.63;;;9.50;39.80;;;;;;5042134;28;20055;-86
2022/01/11 12:11:10;;;;;;;11.30;5.88;;;9.70;39.80;;;;;;5058433;28;20174;-87
2022/01/11 12:13:39;;;;;;;10.25;5.70;;;10.40;39.60;;;;;;5058670;28;20052;-87
2022/01/11 12:16:25;;;;;;;10.27;5.93;;;10.80;38.80;;;;;;5058367;28;20411;-85
2022/01/11 12:18:59;;;;;;;11.43;6.03;;;11.00;38.50;;;;;;5057702;28;20050;-85
2022/01/11 12:21:28;;;;;;;11.70;6.07;;;10.70;38.50;;;;;;5058424;28;20094;-86
2022/01/11 12:23:54;;;;;;;10.27;5.43;;;10.30;39.20;;;;;;5057995;28;20043;-86
2022/01/11 12:26:25;;;;;;;10.95;6.30;;;10.10;39.40;;;;;;5058368;28;20406;-87
2022/01/11 12:29:04;;;;;;;11.13;5.53;;;10.20;39.50;;;;;;5058040;28;20123;-87
2022/01/11 12:31:32;;;;;;;18.20;10.13;;;10.60;38.80;;;;;;5057773;28;20426;-87
2022/01/11 12:33:59;;;;;;;10.65;5.85;;;11.00;38.40;;;;;;5057820;28;20078;-86
2022/01/11 12:36:53;;;;;;;10.43;5.45;;;10.70;38.30;;;;;;5057744;28;20028;-86
2022/01/11 12:39:21;;;;;;;9.52;5.28;;;10.20;39.00;;;;;;5057806;28;20031;-86
2022/01/11 12:41:48;;;;;;;11.30;6.10;;;9.80;39.80;;;;;;5057545;28;20020;-86
2022/01/11 12:44:24;;;;;;;10.05;5.70;;;10.30;39.70;;;;;;5057687;28;20553;-87
2022/01/11 12:46:50;;;;;;;10.35;5.40;;;10.70;39.20;;;;;;5066107;28;20020;-88
2022/01/11 12:49:16;;;;;;;14.40;6.43;;;10.90;38.40;;;;;;5077765;28;20020;-88
2022/01/11 12:51:54;;;;;;;13.77;6.50;;;11.40;38.80;;;;;;5077794;28;20027;-88
2022/01/11 12:54:28;;;;;;;9.98;5.65;;;11.50;37.90;;;;;;5076350;28;20032;-87
2022/01/11 12:56:59;;;;;;;10.70;5.25;;;11.00;38.40;;;;;;5075774;28;20228;-88
2022/01/11 12:59:32;;;;;;;10.50;5.82;;;10.40;39.00;;;;;;5063044;28;20119;-86
2022/01/11 13:02:26;;;;;;;11.38;5.82;;;10.00;39.90;;;;;;5057516;28;20068;-86
2022/01/11 13:04:57;;;;;;;12.57;5.95;;;10.20;40.20;;;;;;5052990;28;20087;-86
2022/01/11 13:07:32;;;;;;;12.00;6.47;;;10.60;39.40;;;;;;5057742;28;20072;-90
2022/01/11 13:10:04;;;;;;;11.13;6.03;;;10.40;39.40;;;;;;5057310;28;20024;-86
2022/01/11 13:12:35;;;;;;;10.65;5.55;;;9.80;40.10;;;;;;5057518;28;20063;-89
2022/01/11 13:15:10;;;;;;;9.85;5.63;;;9.50;41.10;;;;;;5057688;28;20064;-89
2022/01/11 13:17:55;;;;;;;10.07;5.80;;;9.80;40.70;;;;;;5057402;28;20020;-88
2022/01/11 13:20:22;;;;;;;10.70;5.85;;;9.70;40.50;;;;;;5057098;28;20109;-88
2022/01/11 13:22:54;;;;;;;11.43;5.85;;;10.10;39.40;;;;;;5057050;28;20028;-90
2022/01/11 13:25:49;;;;;;;11.48;5.60;;;10.30;39.70;;;;;;5057148;28;20025;-90
2022/01/11 13:28:22;;;;;;;12.38;5.80;;;9.50;40.10;;;;;;5057200;28;20045;-89
2022/01/11 13:30:52;;;;;;;9.43;5.22;;;8.80;41.50;;;;;;5057106;28;20028;-88
2022/01/11 13:33:39;;;;;;;12.38;5.57;;;8.70;41.80;;;;;;5056836;28;20024;-90
2022/01/11 13:36:11;;;;;;;10.18;5.70;;;9.30;41.10;;;;;;5057166;28;20433;-89
2022/01/11 13:38:41;;;;;;;12.20;5.72;;;9.60;40.60;;;;;;5056997;28;20021;-87
2022/01/11 13:41:09;;;;;;;11.63;5.30;;;10.10;40.00;;;;;;5057053;28;20115;-85
2022/01/11 13:43:37;;;;;;;9.90;5.22;;;9.80;40.20;;;;;;5056757;28;20033;-92
2022/01/11 13:46:05;;;;;;;10.45;4.97;;;8.80;41.20;;;;;;5056704;28;20051;-89
2022/01/11 13:48:35;;;;;;;11.05;5.78;;;8.20;42.50;;;;;;5056990;28;20031;-89
2022/01/11 13:51:02;;;;;;;9.07;4.75;;;8.50;42.60;;;;;;5056867;28;20384;-88
2022/01/11 13:53:34;;;;;;;9.27;4.93;;;8.90;41.30;;;;;;5056850;28;20024;-89
2022/01/11 13:56:15;;;;;;;10.95;5.45;;;8.60;42.20;;;;;;5056551;28;20059;-89
2022/01/11 13:58:53;;;;;;;9.75;4.78;;;8.50;42.50;;;;;;4703338;28;10000397;-89
2022/01/11 14:01:21;;;;;;;12.98;5.30;;;9.00;42.00;;;;;;5035403;28;20052;-88
2022/01/11 14:03:48;;;;;;;10.88;5.70;;;9.40;41.20;;;;;;5034871;28;20037;-90
2022/01/11 14:06:20;;;;;;;10.30;5.68;;;9.20;40.90;;;;;;5037023;28;20075;-90
2022/01/11 14:08:53;;;;;;;12.27;5.88;;;9.00;41.60;;;;;;5036380;28;20032;-86
2022/01/11 14:11:37;;;;;;;12.48;5.55;;;9.10;41.30;;;;;;5035194;28;20082;-91
2022/01/11 14:14:06;;;;;;;10.95;5.70;;;9.20;41.40;;;;;;5035754;28;20028;-88
2022/01/11 14:16:42;;;;;;;10.20;5.78;;;9.70;41.40;;;;;;5035704;28;20379;-93
2022/01/11 14:19:11;;;;;;;9.98;5.57;;;9.80;40.60;;;;;;5035774;28;20044;-92